sensor_id;sensor_type;location;lat;lon;timestamp;pressure;altitude;pressure_sealevel;temperature
67966;BMP280;54749;47.850;9.002;2023-07-31T00:01:45;96111.03;;;12.20
67966;BMP280;54749;47.850;9.002;2023-07-31T00:04:13;96104.59;;;12.16
67966;BMP280;54749;47.850;9.002;2023-07-31T00:06:40;96106.91;;;12.08
67966;BMP280;54749;47.850;9.002;2023-07-31T00:09:08;96097.75;;;11.96
67966;BMP280;54749;47.850;9.002;2023-07-31T00:11:36;96100.63;;;11.92
67966;BMP280;54749;47.850;9.002;2023-07-31T00:14:04;96087.41;;;11.89
67966;BMP280;54749;47.850;9.002;2023-07-31T00:16:32;96098.47;;;11.88
67966;BMP280;54749;47.850;9.002;2023-07-31T00:18:59;96093.63;;;11.85
67966;BMP280;54749;47.850;9.002;2023-07-31T00:21:27;96093.44;;;11.77
67966;BMP280;54749;47.850;9.002;2023-07-31T00:23:54;96098.25;;;11.69
67966;BMP280;54749;47.850;9.002;2023-07-31T00:26:22;96107.28;;;11.62
67966;BMP280;54749;47.850;9.002;2023-07-31T00:28:49;96108.19;;;11.61
67966;BMP280;54749;47.850;9.002;2023-07-31T00:31:17;96107.28;;;11.62
67966;BMP280;54749;47.850;9.002;2023-07-31T00:33:44;96110.25;;;11.67
67966;BMP280;54749;47.850;9.002;2023-07-31T00:36:12;96112.09;;;11.65
67966;BMP280;54749;47.850;9.002;2023-07-31T00:38:39;96116.69;;;11.60
67966;BMP280;54749;47.850;9.002;2023-07-31T00:41:07;96104.63;;;11.53
67966;BMP280;54749;47.850;9.002;2023-07-31T00:43:34;96113.94;;;11.53
67966;BMP280;54749;47.850;9.002;2023-07-31T00:46:02;96110.50;;;11.54
67966;BMP280;54749;47.850;9.002;2023-07-31T00:48:30;96113.84;;;11.54
67966;BMP280;54749;47.850;9.002;2023-07-31T00:50:58;96100.94;;;11.57
67966;BMP280;54749;47.850;9.002;2023-07-31T00:53:26;96097.50;;;11.58
67966;BMP280;54749;47.850;9.002;2023-07-31T00:55:54;96092.31;;;11.59
67966;BMP280;54749;47.850;9.002;2023-07-31T00:58:22;96100.72;;;11.60
67966;BMP280;54749;47.850;9.002;2023-07-31T01:00:51;96100.13;;;11.56
67966;BMP280;54749;47.850;9.002;2023-07-31T01:03:19;96102.09;;;11.53
67966;BMP280;54749;47.850;9.002;2023-07-31T01:08:30;96090.84;;;11.46
67966;BMP280;54749;47.850;9.002;2023-07-31T01:11:07;96091.88;;;11.44
67966;BMP280;54749;47.850;9.002;2023-07-31T01:13:37;96091.06;;;11.43
67966;BMP280;54749;47.850;9.002;2023-07-31T01:16:05;96087.50;;;11.46
67966;BMP280;54749;47.850;9.002;2023-07-31T01:18:32;96088.19;;;11.48
67966;BMP280;54749;47.850;9.002;2023-07-31T01:21:39;96088.44;;;11.45
67966;BMP280;54749;47.850;9.002;2023-07-31T01:26:38;96080.63;;;11.37
67966;BMP280;54749;47.850;9.002;2023-07-31T01:29:10;96074.19;;;11.33
67966;BMP280;54749;47.850;9.002;2023-07-31T01:31:48;96077.88;;;11.29
67966;BMP280;54749;47.850;9.002;2023-07-31T01:34:17;96077.50;;;11.23
67966;BMP280;54749;47.850;9.002;2023-07-31T01:36:46;96065.66;;;11.13
67966;BMP280;54749;47.850;9.002;2023-07-31T01:39:14;96067.03;;;11.06
67966;BMP280;54749;47.850;9.002;2023-07-31T01:41:43;96066.56;;;11.01
67966;BMP280;54749;47.850;9.002;2023-07-31T01:44:11;96064.41;;;10.97
67966;BMP280;54749;47.850;9.002;2023-07-31T01:46:38;96058.53;;;10.96
67966;BMP280;54749;47.850;9.002;2023-07-31T01:49:06;96056.91;;;10.95
67966;BMP280;54749;47.850;9.002;2023-07-31T01:51:33;96059.00;;;10.90
67966;BMP280;54749;47.850;9.002;2023-07-31T01:54:01;96055.66;;;10.90
67966;BMP280;54749;47.850;9.002;2023-07-31T01:56:29;96055.78;;;10.88
67966;BMP280;54749;47.850;9.002;2023-07-31T01:58:56;96054.97;;;10.88
67966;BMP280;54749;47.850;9.002;2023-07-31T02:01:24;96049.34;;;10.85
67966;BMP280;54749;47.850;9.002;2023-07-31T02:03:52;96056.00;;;10.85
67966;BMP280;54749;47.850;9.002;2023-07-31T02:06:22;96046.00;;;10.84
67966;BMP280;54749;47.850;9.002;2023-07-31T02:08:49;96047.16;;;10.80
67966;BMP280;54749;47.850;9.002;2023-07-31T02:11:17;96061.75;;;10.77
67966;BMP280;54749;47.850;9.002;2023-07-31T02:13:44;96055.09;;;10.76
67966;BMP280;54749;47.850;9.002;2023-07-31T02:16:11;96052.66;;;10.74
67966;BMP280;54749;47.850;9.002;2023-07-31T02:18:39;96051.63;;;10.77
67966;BMP280;54749;47.850;9.002;2023-07-31T02:21:06;96043.72;;;10.81
67966;BMP280;54749;47.850;9.002;2023-07-31T02:23:33;96049.34;;;10.85
67966;BMP280;54749;47.850;9.002;2023-07-31T02:26:01;96040.03;;;10.85
67966;BMP280;54749;47.850;9.002;2023-07-31T02:28:29;96043.38;;;10.85
67966;BMP280;54749;47.850;9.002;2023-07-31T02:30:58;96033.38;;;10.84
67966;BMP280;54749;47.850;9.002;2023-07-31T02:33:25;96036.13;;;10.81
67966;BMP280;54749;47.850;9.002;2023-07-31T02:35:54;96027.16;;;10.77
67966;BMP280;54749;47.850;9.002;2023-07-31T02:38:22;96031.41;;;10.77
67966;BMP280;54749;47.850;9.002;2023-07-31T02:40:50;96027.97;;;10.78
67966;BMP280;54749;47.850;9.002;2023-07-31T02:43:19;96033.13;;;10.76
67966;BMP280;54749;47.850;9.002;2023-07-31T02:45:51;96034.06;;;10.75
67966;BMP280;54749;47.850;9.002;2023-07-31T02:48:19;96026.56;;;10.74
67966;BMP280;54749;47.850;9.002;2023-07-31T02:50:47;96025.91;;;10.72
67966;BMP280;54749;47.850;9.002;2023-07-31T02:53:14;96032.66;;;10.71
67966;BMP280;54749;47.850;9.002;2023-07-31T02:55:42;96038.53;;;10.72
67966;BMP280;54749;47.850;9.002;2023-07-31T02:58:09;96034.28;;;10.72
67966;BMP280;54749;47.850;9.002;2023-07-31T03:00:42;96033.94;;;10.77
67966;BMP280;54749;47.850;9.002;2023-07-31T03:03:10;96033.59;;;10.81
67966;BMP280;54749;47.850;9.002;2023-07-31T03:05:38;96033.38;;;10.84
67966;BMP280;54749;47.850;9.002;2023-07-31T03:08:06;96028.78;;;10.89
67966;BMP280;54749;47.850;9.002;2023-07-31T03:10:33;96027.72;;;10.91
67966;BMP280;54749;47.850;9.002;2023-07-31T03:13:00;96031.88;;;10.92
67966;BMP280;54749;47.850;9.002;2023-07-31T03:15:28;96017.75;;;10.90
67966;BMP280;54749;47.850;9.002;2023-07-31T03:17:56;96023.00;;;10.87
67966;BMP280;54749;47.850;9.002;2023-07-31T03:20:24;96018.19;;;10.84
67966;BMP280;54749;47.850;9.002;2023-07-31T03:22:52;96024.75;;;10.76
67966;BMP280;54749;47.850;9.002;2023-07-31T03:25:20;96029.34;;;10.71
67966;BMP280;54749;47.850;9.002;2023-07-31T03:27:47;96025.19;;;10.70
67966;BMP280;54749;47.850;9.002;2023-07-31T03:30:15;96031.06;;;10.70
67966;BMP280;54749;47.850;9.002;2023-07-31T03:32:42;96043.03;;;10.68
67966;BMP280;54749;47.850;9.002;2023-07-31T03:35:09;96035.78;;;10.64
67966;BMP280;54749;47.850;9.002;2023-07-31T03:37:36;96036.69;;;10.63
67966;BMP280;54749;47.850;9.002;2023-07-31T03:40:07;96030.13;;;10.61
67966;BMP280;54749;47.850;9.002;2023-07-31T03:42:34;96033.59;;;10.60
67966;BMP280;54749;47.850;9.002;2023-07-31T03:45:02;96034.41;;;10.60
67966;BMP280;54749;47.850;9.002;2023-07-31T03:47:29;96042.91;;;10.59
67966;BMP280;54749;47.850;9.002;2023-07-31T03:49:57;96036.31;;;10.57
67966;BMP280;54749;47.850;9.002;2023-07-31T03:52:24;96045.06;;;10.53
67966;BMP280;54749;47.850;9.002;2023-07-31T03:54:51;96047.00;;;10.50
67966;BMP280;54749;47.850;9.002;2023-07-31T03:57:18;96051.34;;;10.48
67966;BMP280;54749;47.850;9.002;2023-07-31T03:59:46;96047.81;;;10.50
67966;BMP280;54749;47.850;9.002;2023-07-31T04:02:13;96058.50;;;10.53
67966;BMP280;54749;47.850;9.002;2023-07-31T04:04:42;96055.63;;;10.58
67966;BMP280;54749;47.850;9.002;2023-07-31T04:07:09;96054.63;;;10.60
67966;BMP280;54749;47.850;9.002;2023-07-31T04:09:36;96052.44;;;10.67
67966;BMP280;54749;47.850;9.002;2023-07-31T04:12:04;96057.13;;;10.71
67966;BMP280;54749;47.850;9.002;2023-07-31T04:14:31;96061.97;;;10.74
67966;BMP280;54749;47.850;9.002;2023-07-31T04:16:58;96055.88;;;10.76
67966;BMP280;54749;47.850;9.002;2023-07-31T04:19:26;96062.22;;;10.82
67966;BMP280;54749;47.850;9.002;2023-07-31T04:21:53;96056.00;;;10.85
67966;BMP280;54749;47.850;9.002;2023-07-31T04:24:21;96051.84;;;10.95
67966;BMP280;54749;47.850;9.002;2023-07-31T04:26:52;96056.69;;;11.09
67966;BMP280;54749;47.850;9.002;2023-07-31T04:29:19;96047.94;;;11.23
67966;BMP280;54749;47.850;9.002;2023-07-31T04:31:48;96041.50;;;11.30
67966;BMP280;54749;47.850;9.002;2023-07-31T04:34:16;96046.00;;;11.38
67966;BMP280;54749;47.850;9.002;2023-07-31T04:36:43;96038.38;;;11.48
67966;BMP280;54749;47.850;9.002;2023-07-31T04:39:11;96035.81;;;11.59
67966;BMP280;54749;47.850;9.002;2023-07-31T04:41:38;96041.84;;;11.78
67966;BMP280;54749;47.850;9.002;2023-07-31T04:44:06;96027.72;;;12.06
67966;BMP280;54749;47.850;9.002;2023-07-31T04:46:35;96032.66;;;12.27
67966;BMP280;54749;47.850;9.002;2023-07-31T04:49:05;96030.84;;;12.59
67966;BMP280;54749;47.850;9.002;2023-07-31T04:51:32;96026.25;;;12.93
67966;BMP280;54749;47.850;9.002;2023-07-31T04:54:00;96010.88;;;13.23
67966;BMP280;54749;47.850;9.002;2023-07-31T04:56:27;96016.81;;;13.51
67966;BMP280;54749;47.850;9.002;2023-07-31T04:58:55;96020.44;;;13.67
67966;BMP280;54749;47.850;9.002;2023-07-31T05:01:22;96023.25;;;13.74
67966;BMP280;54749;47.850;9.002;2023-07-31T05:03:49;96020.88;;;13.82
67966;BMP280;54749;47.850;9.002;2023-07-31T05:06:17;96017.94;;;14.04
67966;BMP280;54749;47.850;9.002;2023-07-31T05:08:44;96023.44;;;14.28
67966;BMP280;54749;47.850;9.002;2023-07-31T05:11:12;96021.81;;;14.45
67966;BMP280;54749;47.850;9.002;2023-07-31T05:13:39;96012.88;;;14.68
67966;BMP280;54749;47.850;9.002;2023-07-31T05:16:06;96017.13;;;14.95
67966;BMP280;54749;47.850;9.002;2023-07-31T05:18:34;96020.75;;;15.28
67966;BMP280;54749;47.850;9.002;2023-07-31T05:21:01;96012.28;;;15.54
67966;BMP280;54749;47.850;9.002;2023-07-31T05:26:52;96011.88;;;15.75
67966;BMP280;54749;47.850;9.002;2023-07-31T05:29:21;96003.38;;;15.84
67966;BMP280;54749;47.850;9.002;2023-07-31T05:31:58;96005.75;;;15.85
67966;BMP280;54749;47.850;9.002;2023-07-31T05:34:29;96002.06;;;15.80
67966;BMP280;54749;47.850;9.002;2023-07-31T05:36:57;95991.63;;;15.74
67966;BMP280;54749;47.850;9.002;2023-07-31T05:39:24;95999.03;;;15.67
67966;BMP280;54749;47.850;9.002;2023-07-31T05:41:51;96009.88;;;15.52
67966;BMP280;54749;47.850;9.002;2023-07-31T05:44:19;95996.00;;;15.38
67966;BMP280;54749;47.850;9.002;2023-07-31T05:46:46;95996.59;;;15.32
67966;BMP280;54749;47.850;9.002;2023-07-31T05:49:13;96009.84;;;15.35
67966;BMP280;54749;47.850;9.002;2023-07-31T05:51:40;96020.03;;;15.35
67966;BMP280;54749;47.850;9.002;2023-07-31T05:54:07;96014.13;;;15.35
67966;BMP280;54749;47.850;9.002;2023-07-31T05:56:34;96016.13;;;15.41
67966;BMP280;54749;47.850;9.002;2023-07-31T05:59:01;96014.97;;;15.52
67966;BMP280;54749;47.850;9.002;2023-07-31T06:01:29;96013.63;;;15.75
67966;BMP280;54749;47.850;9.002;2023-07-31T06:03:56;96021.31;;;16.09
67966;BMP280;54749;47.850;9.002;2023-07-31T06:06:24;96013.56;;;16.35
67966;BMP280;54749;47.850;9.002;2023-07-31T06:08:51;96013.09;;;16.56
67966;BMP280;54749;47.850;9.002;2023-07-31T06:11:20;96001.41;;;16.71
67966;BMP280;54749;47.850;9.002;2023-07-31T06:13:47;96007.19;;;16.81
67966;BMP280;54749;47.850;9.002;2023-07-31T06:16:16;96001.13;;;17.06
67966;BMP280;54749;47.850;9.002;2023-07-31T06:18:44;96002.31;;;17.19
67966;BMP280;54749;47.850;9.002;2023-07-31T06:21:11;96006.00;;;17.25
67966;BMP280;54749;47.850;9.002;2023-07-31T06:23:38;96005.09;;;17.34
67966;BMP280;54749;47.850;9.002;2023-07-31T06:26:05;96003.00;;;17.37
67966;BMP280;54749;47.850;9.002;2023-07-31T06:28:33;96004.13;;;17.35
67966;BMP280;54749;47.850;9.002;2023-07-31T06:31:00;96010.41;;;17.48
67966;BMP280;54749;47.850;9.002;2023-07-31T06:33:28;96007.44;;;17.68
67966;BMP280;54749;47.850;9.002;2023-07-31T06:35:55;95998.09;;;17.91
67966;BMP280;54749;47.850;9.002;2023-07-31T06:38:24;95989.16;;;18.11
67966;BMP280;54749;47.850;9.002;2023-07-31T06:40:52;95993.66;;;18.09
67966;BMP280;54749;47.850;9.002;2023-07-31T06:43:19;95981.47;;;18.11
67966;BMP280;54749;47.850;9.002;2023-07-31T06:45:46;95982.28;;;18.19
67966;BMP280;54749;47.850;9.002;2023-07-31T06:48:15;95977.00;;;18.28
67966;BMP280;54749;47.850;9.002;2023-07-31T06:50:42;95986.44;;;18.51
67966;BMP280;54749;47.850;9.002;2023-07-31T06:53:10;95982.88;;;18.83
67966;BMP280;54749;47.850;9.002;2023-07-31T06:55:37;95987.09;;;19.22
67966;BMP280;54749;47.850;9.002;2023-07-31T06:58:04;95993.06;;;19.60
67966;BMP280;54749;47.850;9.002;2023-07-31T07:00:31;95984.00;;;19.71
67966;BMP280;54749;47.850;9.002;2023-07-31T07:02:59;95978.63;;;20.10
67966;BMP280;54749;47.850;9.002;2023-07-31T07:05:26;95953.97;;;21.09
67966;BMP280;54749;47.850;9.002;2023-07-31T07:07:54;95945.19;;;22.22
67966;BMP280;54749;47.850;9.002;2023-07-31T07:10:21;95933.56;;;22.52
67966;BMP280;54749;47.850;9.002;2023-07-31T07:12:49;95929.88;;;22.14
67966;BMP280;54749;47.850;9.002;2023-07-31T07:15:17;95942.94;;;21.78
67966;BMP280;54749;47.850;9.002;2023-07-31T07:17:44;95943.97;;;21.63
67966;BMP280;54749;47.850;9.002;2023-07-31T07:20:11;95957.41;;;21.44
67966;BMP280;54749;47.850;9.002;2023-07-31T07:22:38;95970.00;;;21.40
67966;BMP280;54749;47.850;9.002;2023-07-31T07:25:05;95969.13;;;21.47
67966;BMP280;54749;47.850;9.002;2023-07-31T07:27:34;95956.53;;;21.72
67966;BMP280;54749;47.850;9.002;2023-07-31T07:30:01;95953.94;;;21.86
67966;BMP280;54749;47.850;9.002;2023-07-31T07:32:29;95958.75;;;21.89
67966;BMP280;54749;47.850;9.002;2023-07-31T07:34:56;95961.31;;;21.89
67966;BMP280;54749;47.850;9.002;2023-07-31T07:37:23;95955.00;;;21.77
67966;BMP280;54749;47.850;9.002;2023-07-31T07:39:50;95953.78;;;21.74
67966;BMP280;54749;47.850;9.002;2023-07-31T07:42:18;95962.81;;;21.49
67966;BMP280;54749;47.850;9.002;2023-07-31T07:44:45;95954.97;;;21.57
67966;BMP280;54749;47.850;9.002;2023-07-31T07:47:12;95949.03;;;21.91
67966;BMP280;54749;47.850;9.002;2023-07-31T07:49:39;95950.53;;;22.20
67966;BMP280;54749;47.850;9.002;2023-07-31T07:52:07;95944.66;;;22.53
67966;BMP280;54749;47.850;9.002;2023-07-31T07:54:34;95946.53;;;23.18
67966;BMP280;54749;47.850;9.002;2023-07-31T07:57:01;95940.31;;;23.40
67966;BMP280;54749;47.850;9.002;2023-07-31T07:59:28;95932.81;;;23.51
67966;BMP280;54749;47.850;9.002;2023-07-31T08:01:55;95943.50;;;23.94
67966;BMP280;54749;47.850;9.002;2023-07-31T08:04:24;95939.41;;;24.50
67966;BMP280;54749;47.850;9.002;2023-07-31T08:06:51;95932.06;;;24.85
67966;BMP280;54749;47.850;9.002;2023-07-31T08:09:18;95935.47;;;25.47
67966;BMP280;54749;47.850;9.002;2023-07-31T08:11:45;95922.38;;;26.93
67966;BMP280;54749;47.850;9.002;2023-07-31T08:14:13;95917.47;;;28.48
67966;BMP280;54749;47.850;9.002;2023-07-31T08:16:40;95903.81;;;29.30
67966;BMP280;54749;47.850;9.002;2023-07-31T08:19:08;95897.28;;;30.21
67966;BMP280;54749;47.850;9.002;2023-07-31T08:21:35;95883.16;;;30.81
67966;BMP280;54749;47.850;9.002;2023-07-31T08:24:02;95891.69;;;31.66
67966;BMP280;54749;47.850;9.002;2023-07-31T08:26:29;95881.00;;;32.40
67966;BMP280;54749;47.850;9.002;2023-07-31T08:28:56;95868.53;;;33.23
67966;BMP280;54749;47.850;9.002;2023-07-31T08:31:24;95851.38;;;34.45
67966;BMP280;54749;47.850;9.002;2023-07-31T08:33:51;95862.59;;;35.14
67966;BMP280;54749;47.850;9.002;2023-07-31T08:36:18;95876.19;;;32.89
67966;BMP280;54749;47.850;9.002;2023-07-31T08:38:45;95872.81;;;33.39
67966;BMP280;54749;47.850;9.002;2023-07-31T08:41:13;95855.13;;;33.75
67966;BMP280;54749;47.850;9.002;2023-07-31T08:43:45;95844.41;;;33.86
67966;BMP280;54749;47.850;9.002;2023-07-31T08:46:13;95841.09;;;34.19
67966;BMP280;54749;47.850;9.002;2023-07-31T08:48:44;95834.81;;;34.35
67966;BMP280;54749;47.850;9.002;2023-07-31T08:51:14;95837.94;;;34.85
67966;BMP280;54749;47.850;9.002;2023-07-31T08:53:41;95819.81;;;35.75
67966;BMP280;54749;47.850;9.002;2023-07-31T08:56:09;95816.66;;;36.15
67966;BMP280;54749;47.850;9.002;2023-07-31T08:58:37;95821.78;;;35.97
67966;BMP280;54749;47.850;9.002;2023-07-31T09:01:07;95825.13;;;36.78
67966;BMP280;54749;47.850;9.002;2023-07-31T09:03:35;95831.97;;;36.13
67966;BMP280;54749;47.850;9.002;2023-07-31T09:06:05;95815.84;;;36.20
67966;BMP280;54749;47.850;9.002;2023-07-31T09:08:33;95807.63;;;36.59
67966;BMP280;54749;47.850;9.002;2023-07-31T09:11:02;95818.78;;;37.06
67966;BMP280;54749;47.850;9.002;2023-07-31T09:13:32;95814.97;;;36.66
67966;BMP280;54749;47.850;9.002;2023-07-31T09:16:00;95815.47;;;37.19
67966;BMP280;54749;47.850;9.002;2023-07-31T09:18:27;95824.94;;;36.69
67966;BMP280;54749;47.850;9.002;2023-07-31T09:21:04;95819.09;;;36.07
67966;BMP280;54749;47.850;9.002;2023-07-31T09:23:45;95809.38;;;35.98
67966;BMP280;54749;47.850;9.002;2023-07-31T09:26:31;95807.28;;;36.98
67966;BMP280;54749;47.850;9.002;2023-07-31T09:28:59;95809.41;;;36.96
67966;BMP280;54749;47.850;9.002;2023-07-31T09:31:40;95817.31;;;36.35
67966;BMP280;54749;47.850;9.002;2023-07-31T09:34:08;95823.84;;;36.00
67966;BMP280;54749;47.850;9.002;2023-07-31T09:36:50;95822.44;;;36.17
67966;BMP280;54749;47.850;9.002;2023-07-31T09:39:17;95811.66;;;36.19
67966;BMP280;54749;47.850;9.002;2023-07-31T09:41:53;95809.66;;;36.99
67966;BMP280;54749;47.850;9.002;2023-07-31T09:44:20;95804.63;;;37.48
67966;BMP280;54749;47.850;9.002;2023-07-31T09:46:48;95823.06;;;35.48
67966;BMP280;54749;47.850;9.002;2023-07-31T09:49:16;95817.91;;;35.80
67966;BMP280;54749;47.850;9.002;2023-07-31T09:51:43;95803.44;;;36.85
67966;BMP280;54749;47.850;9.002;2023-07-31T09:54:12;95800.31;;;37.06
67966;BMP280;54749;47.850;9.002;2023-07-31T09:56:45;95771.16;;;37.44
67966;BMP280;54749;47.850;9.002;2023-07-31T09:59:17;95779.53;;;37.69
67966;BMP280;54749;47.850;9.002;2023-07-31T10:01:50;95770.19;;;37.12
67966;BMP280;54749;47.850;9.002;2023-07-31T10:04:17;95791.84;;;35.89
67966;BMP280;54749;47.850;9.002;2023-07-31T10:06:49;95795.31;;;35.03
67966;BMP280;54749;47.850;9.002;2023-07-31T10:09:18;95793.31;;;34.76
67966;BMP280;54749;47.850;9.002;2023-07-31T10:11:47;95777.22;;;36.10
67966;BMP280;54749;47.850;9.002;2023-07-31T10:14:21;95782.81;;;35.52
67966;BMP280;54749;47.850;9.002;2023-07-31T10:16:49;95775.88;;;35.04
67966;BMP280;54749;47.850;9.002;2023-07-31T10:19:17;95782.25;;;34.84
67966;BMP280;54749;47.850;9.002;2023-07-31T10:21:46;95779.06;;;35.01
67966;BMP280;54749;47.850;9.002;2023-07-31T10:24:15;95763.97;;;35.83
67966;BMP280;54749;47.850;9.002;2023-07-31T10:26:45;95747.75;;;36.09
67966;BMP280;54749;47.850;9.002;2023-07-31T10:29:13;95742.19;;;35.21
67966;BMP280;54749;47.850;9.002;2023-07-31T10:31:41;95739.97;;;35.42
67966;BMP280;54749;47.850;9.002;2023-07-31T10:34:08;95739.97;;;36.27
67966;BMP280;54749;47.850;9.002;2023-07-31T10:36:35;95737.28;;;35.52
67966;BMP280;54749;47.850;9.002;2023-07-31T10:39:04;95738.94;;;35.38
67966;BMP280;54749;47.850;9.002;2023-07-31T10:41:31;95731.88;;;35.34
67966;BMP280;54749;47.850;9.002;2023-07-31T10:44:01;95716.22;;;35.94
67966;BMP280;54749;47.850;9.002;2023-07-31T10:46:29;95712.66;;;35.80
67966;BMP280;54749;47.850;9.002;2023-07-31T10:49:01;95715.03;;;35.35
67966;BMP280;54749;47.850;9.002;2023-07-31T10:51:35;95685.94;;;35.21
67966;BMP280;54749;47.850;9.002;2023-07-31T10:54:15;95701.53;;;34.99
67966;BMP280;54749;47.850;9.002;2023-07-31T10:56:45;95706.00;;;34.98
67966;BMP280;54749;47.850;9.002;2023-07-31T10:59:13;95703.03;;;33.84
67966;BMP280;54749;47.850;9.002;2023-07-31T11:01:55;95710.31;;;33.73
67966;BMP280;54749;47.850;9.002;2023-07-31T11:04:25;95698.81;;;34.08
67966;BMP280;54749;47.850;9.002;2023-07-31T11:06:58;95680.50;;;34.99
67966;BMP280;54749;47.850;9.002;2023-07-31T11:09:32;95688.81;;;33.42
67966;BMP280;54749;47.850;9.002;2023-07-31T11:12:00;95714.59;;;31.31
67966;BMP280;54749;47.850;9.002;2023-07-31T11:14:27;95714.78;;;30.25
67966;BMP280;54749;47.850;9.002;2023-07-31T11:16:54;95728.19;;;29.26
67966;BMP280;54749;47.850;9.002;2023-07-31T11:19:23;95725.06;;;28.75
67966;BMP280;54749;47.850;9.002;2023-07-31T11:21:52;95731.06;;;28.08
67966;BMP280;54749;47.850;9.002;2023-07-31T11:24:20;95729.13;;;27.81
67966;BMP280;54749;47.850;9.002;2023-07-31T11:26:51;95732.16;;;27.39
67966;BMP280;54749;47.850;9.002;2023-07-31T11:29:19;95742.50;;;26.46
67966;BMP280;54749;47.850;9.002;2023-07-31T11:31:47;95749.84;;;27.02
67966;BMP280;54749;47.850;9.002;2023-07-31T11:34:15;95743.59;;;26.56
67966;BMP280;54749;47.850;9.002;2023-07-31T11:36:53;95745.69;;;26.66
67966;BMP280;54749;47.850;9.002;2023-07-31T11:39:21;95736.63;;;26.57
67966;BMP280;54749;47.850;9.002;2023-07-31T11:41:49;95730.94;;;26.25
67966;BMP280;54749;47.850;9.002;2023-07-31T11:44:16;95730.97;;;26.42
67966;BMP280;54749;47.850;9.002;2023-07-31T11:46:56;95724.59;;;26.62
67966;BMP280;54749;47.850;9.002;2023-07-31T11:49:23;95721.56;;;26.94
67966;BMP280;54749;47.850;9.002;2023-07-31T11:51:51;95723.06;;;26.55
67966;BMP280;54749;47.850;9.002;2023-07-31T11:54:18;95715.41;;;26.77
67966;BMP280;54749;47.850;9.002;2023-07-31T11:56:45;95724.66;;;26.56
67966;BMP280;54749;47.850;9.002;2023-07-31T11:59:13;95721.19;;;26.79
67966;BMP280;54749;47.850;9.002;2023-07-31T12:01:40;95717.00;;;26.78
67966;BMP280;54749;47.850;9.002;2023-07-31T12:04:07;95714.84;;;26.40
67966;BMP280;54749;47.850;9.002;2023-07-31T12:06:35;95709.38;;;26.48
67966;BMP280;54749;47.850;9.002;2023-07-31T12:09:04;95698.34;;;26.70
67966;BMP280;54749;47.850;9.002;2023-07-31T12:11:48;95683.28;;;27.36
67966;BMP280;54749;47.850;9.002;2023-07-31T12:14:26;95686.25;;;27.10
67966;BMP280;54749;47.850;9.002;2023-07-31T12:16:57;95679.53;;;27.21
67966;BMP280;54749;47.850;9.002;2023-07-31T12:19:26;95669.94;;;27.61
67966;BMP280;54749;47.850;9.002;2023-07-31T12:21:56;95671.00;;;27.54
67966;BMP280;54749;47.850;9.002;2023-07-31T12:24:23;95671.19;;;27.70
67966;BMP280;54749;47.850;9.002;2023-07-31T12:26:50;95667.00;;;27.69
67966;BMP280;54749;47.850;9.002;2023-07-31T12:29:19;95668.84;;;27.51
67966;BMP280;54749;47.850;9.002;2023-07-31T12:31:46;95662.53;;;27.47
67966;BMP280;54749;47.850;9.002;2023-07-31T12:34:17;95654.75;;;27.07
67966;BMP280;54749;47.850;9.002;2023-07-31T12:36:48;95657.16;;;26.62
67966;BMP280;54749;47.850;9.002;2023-07-31T12:39:15;95673.22;;;26.35
67966;BMP280;54749;47.850;9.002;2023-07-31T12:41:43;95664.00;;;26.39
67966;BMP280;54749;47.850;9.002;2023-07-31T12:44:10;95671.19;;;26.37
67966;BMP280;54749;47.850;9.002;2023-07-31T12:46:37;95653.03;;;26.72
67966;BMP280;54749;47.850;9.002;2023-07-31T12:49:05;95654.75;;;26.78
67966;BMP280;54749;47.850;9.002;2023-07-31T12:51:32;95648.66;;;26.84
67966;BMP280;54749;47.850;9.002;2023-07-31T12:53:59;95645.97;;;26.79
67966;BMP280;54749;47.850;9.002;2023-07-31T12:56:27;95642.84;;;26.71
67966;BMP280;54749;47.850;9.002;2023-07-31T12:58:53;95639.38;;;26.66
67966;BMP280;54749;47.850;9.002;2023-07-31T13:01:21;95626.44;;;26.77
67966;BMP280;54749;47.850;9.002;2023-07-31T13:03:48;95623.84;;;26.77
67966;BMP280;54749;47.850;9.002;2023-07-31T13:06:15;95625.38;;;26.67
67966;BMP280;54749;47.850;9.002;2023-07-31T13:08:42;95614.16;;;27.12
67966;BMP280;54749;47.850;9.002;2023-07-31T13:11:09;95618.50;;;27.01
67966;BMP280;54749;47.850;9.002;2023-07-31T13:13:36;95600.31;;;26.89
67966;BMP280;54749;47.850;9.002;2023-07-31T13:16:04;95604.88;;;26.76
67966;BMP280;54749;47.850;9.002;2023-07-31T13:18:31;95599.28;;;26.79
67966;BMP280;54749;47.850;9.002;2023-07-31T13:20:58;95587.56;;;26.88
67966;BMP280;54749;47.850;9.002;2023-07-31T13:23:25;95584.84;;;26.83
67966;BMP280;54749;47.850;9.002;2023-07-31T13:25:52;95585.88;;;26.93
67966;BMP280;54749;47.850;9.002;2023-07-31T13:28:19;95577.16;;;27.28
67966;BMP280;54749;47.850;9.002;2023-07-31T13:30:47;95563.97;;;27.18
67966;BMP280;54749;47.850;9.002;2023-07-31T13:33:13;95581.13;;;26.90
67966;BMP280;54749;47.850;9.002;2023-07-31T13:36:00;95569.28;;;26.83
67966;BMP280;54749;47.850;9.002;2023-07-31T13:38:27;95571.41;;;26.75
67966;BMP280;54749;47.850;9.002;2023-07-31T13:40:54;95569.97;;;26.90
67966;BMP280;54749;47.850;9.002;2023-07-31T13:43:21;95568.91;;;26.80
67966;BMP280;54749;47.850;9.002;2023-07-31T13:45:49;95577.19;;;26.88
67966;BMP280;54749;47.850;9.002;2023-07-31T13:48:16;95569.97;;;26.90
67966;BMP280;54749;47.850;9.002;2023-07-31T13:50:43;95562.00;;;27.03
67966;BMP280;54749;47.850;9.002;2023-07-31T13:53:10;95575.50;;;26.93
67966;BMP280;54749;47.850;9.002;2023-07-31T13:55:37;95563.97;;;27.18
67966;BMP280;54749;47.850;9.002;2023-07-31T13:58:04;95567.25;;;26.85
67966;BMP280;54749;47.850;9.002;2023-07-31T14:00:31;95563.88;;;26.56
67966;BMP280;54749;47.850;9.002;2023-07-31T14:02:58;95572.97;;;26.47
67966;BMP280;54749;47.850;9.002;2023-07-31T14:05:26;95568.25;;;26.44
67966;BMP280;54749;47.850;9.002;2023-07-31T14:07:54;95557.69;;;26.57
67966;BMP280;54749;47.850;9.002;2023-07-31T14:10:21;95551.78;;;26.50
67966;BMP280;54749;47.850;9.002;2023-07-31T14:12:48;95562.91;;;26.39
67966;BMP280;54749;47.850;9.002;2023-07-31T14:15:15;95558.97;;;26.66
67966;BMP280;54749;47.850;9.002;2023-07-31T14:17:42;95547.31;;;26.57
67966;BMP280;54749;47.850;9.002;2023-07-31T14:20:10;95549.53;;;26.42
67966;BMP280;54749;47.850;9.002;2023-07-31T14:22:38;95549.06;;;26.45
67966;BMP280;54749;47.850;9.002;2023-07-31T14:25:06;95548.06;;;26.46